Hopewell, Ohio
Current Conditions -  °F | °C
As of 1:53 PM on Thursday 30 Oct 2014 (Local Time) from KZZV Reporting Station
Overcast Overcast  
Wind Chill: 49°   Ceiling: 4800
Heat Index: 49°   Visibility: 10mi
Dew Point: 32°   Wind: 3mph
Humidity: 52%   Direction: 310°NW
Pressure: 30.11"   Gusts: NA
Location:  39.95°N, 82.17°W
Report Text: KZZV 301753Z AUTO 31003KT 10SM OVC048 09/00 A3011 RMK AO2 SLP198 T00940000 10106 21017 58013
Loading
Personal Weather Stations






























Interactive Weather Map New forecast layout! Learn more

10-Day Weather Forecast

Advertisements
Track Severe Weather on mobile